createdAt,value
2023-03-15T00:01:14.701Z,-0.20
2023-03-15T00:04:16.274Z,-0.20
2023-03-15T00:07:17.797Z,-0.19
2023-03-15T00:10:19.410Z,-0.18
2023-03-15T00:13:20.943Z,-0.19
2023-03-15T00:16:27.220Z,-0.20
2023-03-15T00:19:28.755Z,-0.20
2023-03-15T00:22:30.335Z,-0.20
2023-03-15T00:25:31.858Z,-0.21
2023-03-15T00:28:33.412Z,-0.22
2023-03-15T00:31:36.021Z,-0.20
2023-03-15T00:34:37.646Z,-0.18
2023-03-15T00:37:39.579Z,-0.18
2023-03-15T00:40:41.521Z,-0.18
2023-03-15T00:43:44.607Z,-0.19
2023-03-15T00:46:46.133Z,-0.18
2023-03-15T00:49:47.728Z,-0.18
2023-03-15T00:52:49.635Z,-0.18
2023-03-15T00:55:51.183Z,-0.19
2023-03-15T00:58:53.181Z,-0.21
2023-03-15T01:01:54.879Z,-0.21
2023-03-15T01:04:56.373Z,-0.21
2023-03-15T01:07:57.911Z,-0.22
2023-03-15T01:11:12.172Z,-0.21
2023-03-15T01:14:13.768Z,-0.22
2023-03-15T01:17:15.324Z,-0.21
2023-03-15T01:20:17.025Z,-0.21
2023-03-15T01:23:18.686Z,-0.23
2023-03-15T01:26:20.320Z,-0.23
2023-03-15T01:29:21.843Z,-0.25
2023-03-15T01:32:23.517Z,-0.25
2023-03-15T01:35:25.240Z,-0.27
2023-03-15T01:38:27.326Z,-0.28
2023-03-15T01:41:28.974Z,-0.29
2023-03-15T01:44:57.599Z,-0.31
2023-03-15T01:47:59.513Z,-0.33
2023-03-15T01:51:11.195Z,-0.36
2023-03-15T01:54:37.059Z,-0.39
2023-03-15T01:58:00.485Z,-0.42
2023-03-15T02:01:02.780Z,-0.44
2023-03-15T02:04:10.378Z,-0.43
2023-03-15T02:07:13.551Z,-0.42
2023-03-15T02:10:20.936Z,-0.41
2023-03-15T02:13:25.039Z,-0.43
2023-03-15T02:16:28.791Z,-0.42
2023-03-15T02:19:54.327Z,-0.42
2023-03-15T02:23:00.217Z,-0.46
2023-03-15T02:26:15.027Z,-0.50
2023-03-15T02:29:16.726Z,-0.51
2023-03-15T02:32:18.384Z,-0.52
2023-03-15T02:35:29.062Z,-0.53
2023-03-15T02:38:30.941Z,-0.54
2023-03-15T02:41:40.064Z,-0.54
2023-03-15T02:44:44.325Z,-0.55
2023-03-15T02:47:47.166Z,-0.55
2023-03-15T02:50:48.919Z,-0.56
2023-03-15T02:53:50.467Z,-0.57
2023-03-15T02:56:52.038Z,-0.58
2023-03-15T02:59:55.086Z,-0.59
2023-03-15T03:02:56.931Z,-0.62
2023-03-15T03:05:58.473Z,-0.64
2023-03-15T03:09:00.045Z,-0.65
2023-03-15T03:12:01.626Z,-0.66
2023-03-15T03:15:04.762Z,-0.68
2023-03-15T03:18:06.514Z,-0.68
2023-03-15T03:21:08.393Z,-0.70
2023-03-15T03:24:10.890Z,-0.70
2023-03-15T03:27:14.969Z,-0.71
2023-03-15T03:30:16.676Z,-0.72
2023-03-15T03:33:18.267Z,-0.71
2023-03-15T03:36:19.952Z,-0.71
2023-03-15T03:39:21.543Z,-0.71
2023-03-15T03:42:23.129Z,-0.74
2023-03-15T03:45:24.677Z,-0.75
2023-03-15T03:48:26.471Z,-0.77
2023-03-15T03:51:28.057Z,-0.77
2023-03-15T03:54:29.632Z,-0.78
2023-03-15T03:57:31.159Z,-0.79
2023-03-15T04:00:32.725Z,-0.79
2023-03-15T04:03:34.279Z,-0.79
2023-03-15T04:06:35.865Z,-0.80
2023-03-15T04:09:37.775Z,-0.82
2023-03-15T04:12:39.481Z,-0.83
2023-03-15T04:15:41.339Z,-0.85
2023-03-15T04:18:42.975Z,-0.87
2023-03-15T04:21:47.347Z,-0.89
2023-03-15T04:24:50.728Z,-0.90
2023-03-15T04:27:59.069Z,-0.92
2023-03-15T04:31:00.733Z,-0.93
2023-03-15T04:34:02.322Z,-0.95
2023-03-15T04:37:03.884Z,-0.96
2023-03-15T04:40:07.191Z,-1.00
2023-03-15T04:43:08.814Z,-1.02
2023-03-15T04:46:10.719Z,-1.04
2023-03-15T04:49:12.619Z,-1.06
2023-03-15T04:52:14.129Z,-1.07
2023-03-15T04:55:15.736Z,-1.08
2023-03-15T04:58:17.705Z,-1.11
2023-03-15T05:01:19.275Z,-1.13
2023-03-15T05:04:21.604Z,-1.15
2023-03-15T05:07:23.410Z,-1.18
2023-03-15T05:10:25.433Z,-1.21
2023-03-15T05:13:27.134Z,-1.23
2023-03-15T05:16:28.725Z,-1.24
2023-03-15T05:19:34.195Z,-1.27
2023-03-15T05:22:35.764Z,-1.28
2023-03-15T05:25:38.695Z,-1.31
2023-03-15T05:28:40.452Z,-1.35
2023-03-15T05:31:42.035Z,-1.36
2023-03-15T05:34:44.213Z,-1.38
2023-03-15T05:37:45.731Z,-1.39
2023-03-15T05:40:47.531Z,-1.41
2023-03-15T05:43:49.092Z,-1.35
2023-03-15T05:46:50.622Z,-1.29
2023-03-15T05:49:53.430Z,-1.29
2023-03-15T05:52:55.631Z,-1.32
2023-03-15T05:55:57.222Z,-1.35
2023-03-15T05:58:58.809Z,-1.37
2023-03-15T06:02:00.740Z,-1.39
2023-03-15T06:05:02.274Z,-1.41
2023-03-15T06:08:04.066Z,-1.42
2023-03-15T06:11:05.821Z,-1.42
2023-03-15T06:14:07.687Z,-1.42
2023-03-15T06:17:09.349Z,-1.41
2023-03-15T06:20:11.602Z,-1.37
2023-03-15T06:23:13.150Z,-1.34
2023-03-15T06:26:15.256Z,-1.24
2023-03-15T06:29:17.620Z,-1.16
2023-03-15T06:32:19.182Z,-1.09
2023-03-15T06:35:21.092Z,-1.04
2023-03-15T06:38:22.657Z,-0.97
2023-03-15T06:41:24.229Z,-0.91
2023-03-15T06:44:25.778Z,-0.85
2023-03-15T06:47:27.510Z,-0.78
2023-03-15T06:50:37.250Z,-0.70
2023-03-15T06:53:45.900Z,-0.61
2023-03-15T06:56:47.452Z,-0.51
2023-03-15T06:59:49.173Z,-0.42
2023-03-15T07:02:50.725Z,-0.34
2023-03-15T07:05:54.414Z,-0.31
2023-03-15T07:08:56.115Z,-0.27
2023-03-15T07:11:57.633Z,-0.15
2023-03-15T07:14:59.188Z,-0.03
2023-03-15T07:18:00.816Z,0.05
2023-03-15T07:21:03.807Z,0.16
2023-03-15T07:24:05.593Z,0.28
2023-03-15T07:27:07.206Z,0.42
2023-03-15T07:30:09.849Z,0.71
2023-03-15T07:33:11.422Z,0.86
2023-03-15T07:36:12.984Z,0.98
2023-03-15T07:39:14.624Z,1.09
2023-03-15T07:42:16.831Z,1.18
2023-03-15T07:45:18.576Z,1.25
2023-03-15T07:48:20.149Z,1.34
2023-03-15T07:51:21.790Z,1.42
2023-03-15T07:54:23.423Z,1.47
2023-03-15T07:57:27.062Z,1.49
2023-03-15T08:00:30.136Z,1.45
2023-03-15T08:03:31.742Z,1.38
2023-03-15T08:06:33.307Z,1.31
2023-03-15T08:09:34.986Z,1.29
2023-03-15T08:12:36.614Z,1.31
2023-03-15T08:15:38.284Z,1.36
2023-03-15T08:18:39.828Z,1.39
2023-03-15T08:21:45.302Z,1.39
2023-03-15T08:24:46.837Z,1.42
2023-03-15T08:27:48.519Z,1.44
2023-03-15T08:30:50.066Z,1.48
2023-03-15T08:33:51.846Z,1.53
2023-03-15T08:36:53.497Z,1.58
2023-03-15T08:40:00.979Z,1.63
2023-03-15T08:43:02.507Z,1.65
2023-03-15T08:46:04.237Z,1.68
2023-03-15T08:49:05.769Z,1.70
2023-03-15T08:52:07.557Z,1.75
2023-03-15T08:55:09.970Z,1.80
2023-03-15T08:58:14.392Z,1.85
2023-03-15T09:01:16.142Z,1.92
2023-03-15T09:04:17.704Z,1.99
2023-03-15T09:07:19.371Z,2.05
2023-03-15T09:10:22.115Z,2.05
2023-03-15T09:13:24.780Z,2.11
2023-03-15T09:16:26.586Z,2.22
2023-03-15T09:22:39.588Z,2.46
2023-03-15T09:25:41.908Z,2.60
2023-03-15T09:28:43.506Z,2.64
2023-03-15T09:31:45.210Z,2.65
2023-03-15T09:34:46.973Z,3.02
2023-03-15T09:37:50.122Z,3.15
2023-03-15T09:40:57.699Z,3.11
2023-03-15T09:44:27.037Z,3.01
2023-03-15T09:47:36.670Z,2.81
2023-03-15T09:50:52.489Z,2.86
2023-03-15T09:54:19.967Z,2.78
2023-03-15T09:57:34.290Z,2.69
2023-03-15T10:00:39.981Z,2.58
2023-03-15T10:03:46.741Z,2.45
2023-03-15T10:06:54.225Z,2.32
2023-03-15T10:09:58.997Z,2.19
2023-03-15T10:13:23.670Z,2.06
2023-03-15T10:16:39.242Z,1.95
2023-03-15T10:19:51.032Z,1.85
2023-03-15T10:23:00.548Z,1.75
2023-03-15T10:26:08.271Z,1.67
2023-03-15T10:29:16.660Z,1.62
2023-03-15T10:32:20.626Z,1.58
2023-03-15T10:35:22.255Z,1.53
2023-03-15T10:38:25.798Z,1.50
2023-03-15T10:41:29.397Z,1.47
2023-03-15T10:44:36.935Z,1.45
2023-03-15T10:47:50.370Z,1.44
2023-03-15T10:50:57.553Z,1.45
2023-03-15T10:53:59.978Z,1.47
2023-03-15T10:57:13.602Z,1.51
2023-03-15T11:00:49.063Z,1.57
2023-03-15T11:04:20.186Z,1.68
2023-03-15T11:07:22.166Z,1.77
2023-03-15T11:10:33.459Z,1.80
2023-03-15T11:13:38.122Z,1.85
2023-03-15T11:16:40.075Z,2.05
2023-03-15T11:19:46.060Z,2.03
2023-03-15T11:22:47.624Z,1.92
2023-03-15T11:25:49.438Z,1.81
2023-03-15T11:29:01.162Z,1.71
2023-03-15T11:32:18.538Z,1.66
2023-03-15T11:35:29.141Z,1.61
2023-03-15T11:38:35.353Z,1.57
2023-03-15T11:41:48.715Z,1.55
2023-03-15T11:44:55.128Z,1.55
2023-03-15T11:48:01.771Z,1.55
2023-03-15T11:51:03.414Z,1.55
2023-03-15T11:54:19.286Z,1.58
2023-03-15T11:57:30.629Z,1.62
2023-03-15T12:00:34.419Z,1.66
2023-03-15T12:03:41.812Z,1.72
2023-03-15T12:06:43.430Z,1.78
2023-03-15T12:09:56.296Z,1.85
2023-03-15T12:13:05.758Z,1.93
2023-03-15T12:16:07.531Z,2.03
2023-03-15T12:19:14.271Z,2.16
2023-03-15T12:22:17.659Z,2.34
2023-03-15T12:26:03.915Z,2.58
2023-03-15T12:29:12.958Z,2.77
2023-03-15T12:32:18.611Z,2.97
2023-03-15T12:35:22.522Z,3.11
2023-03-15T12:38:24.457Z,3.28
2023-03-15T12:41:58.513Z,3.43
2023-03-15T12:45:15.391Z,3.56
2023-03-15T12:48:22.002Z,3.66
2023-03-15T12:51:54.251Z,3.88
2023-03-15T12:55:05.962Z,4.00
2023-03-15T12:58:11.893Z,4.11
2023-03-15T13:01:16.429Z,4.20
2023-03-15T13:04:18.322Z,4.26
2023-03-15T13:07:50.989Z,4.25
2023-03-15T13:11:12.062Z,4.28
2023-03-15T13:14:22.262Z,4.34
2023-03-15T13:17:23.759Z,4.40
2023-03-15T13:20:46.475Z,4.47
2023-03-15T13:23:52.367Z,4.67
2023-03-15T13:27:04.839Z,4.90
2023-03-15T13:30:28.147Z,4.97
2023-03-15T13:33:31.762Z,4.94
2023-03-15T13:36:44.957Z,4.94
2023-03-15T13:39:56.036Z,4.93
2023-03-15T13:43:01.945Z,4.99
2023-03-15T13:46:05.023Z,5.02
2023-03-15T13:49:06.747Z,5.06
2023-03-15T13:52:14.749Z,5.09
2023-03-15T13:55:21.291Z,5.08
2023-03-15T13:58:24.279Z,5.07
2023-03-15T14:01:27.055Z,5.09
2023-03-15T14:04:29.134Z,5.10
2023-03-15T14:07:45.094Z,5.14
2023-03-15T14:11:02.184Z,5.26
2023-03-15T14:14:23.326Z,5.29
2023-03-15T14:17:30.480Z,5.26
2023-03-15T14:20:40.789Z,5.25
2023-03-15T14:23:45.483Z,5.24
2023-03-15T14:26:53.649Z,5.20
2023-03-15T14:30:00.965Z,5.19
2023-03-15T14:33:08.869Z,5.19
2023-03-15T14:36:29.656Z,5.18
2023-03-15T14:39:39.141Z,5.19
2023-03-15T14:42:40.655Z,5.19
2023-03-15T14:45:45.422Z,5.18
2023-03-15T14:48:47.120Z,5.17
2023-03-15T14:51:53.736Z,5.15
2023-03-15T14:54:55.280Z,5.10
2023-03-15T14:57:57.262Z,5.10
2023-03-15T15:00:59.089Z,5.13
2023-03-15T15:04:03.126Z,5.15
2023-03-15T15:07:05.177Z,5.16
2023-03-15T15:10:07.130Z,5.14
2023-03-15T15:13:17.558Z,5.13
2023-03-15T15:16:19.213Z,5.12
2023-03-15T15:19:20.781Z,5.09
2023-03-15T15:22:23.646Z,5.23
2023-03-15T15:25:25.224Z,5.25
2023-03-15T15:28:35.438Z,5.23
2023-03-15T15:31:37.935Z,5.21
2023-03-15T15:34:41.061Z,5.22
2023-03-15T15:37:43.917Z,5.42
2023-03-15T15:40:45.574Z,5.48
2023-03-15T15:43:47.186Z,5.48
2023-03-15T15:46:48.758Z,5.45
2023-03-15T15:49:50.501Z,5.40
2023-03-15T15:52:52.994Z,5.36
2023-03-15T15:55:54.575Z,5.32
2023-03-15T15:58:57.502Z,5.31
2023-03-15T16:02:01.927Z,5.30
2023-03-15T16:05:04.235Z,5.25
2023-03-15T16:08:06.189Z,5.20
2023-03-15T16:11:08.080Z,5.15
2023-03-15T16:14:12.287Z,5.11
2023-03-15T16:17:19.431Z,5.09
2023-03-15T16:20:20.942Z,5.08
2023-03-15T16:23:25.101Z,5.07
2023-03-15T16:26:27.516Z,5.06
2023-03-15T16:29:45.683Z,5.04
2023-03-15T16:32:47.415Z,5.02
2023-03-15T16:35:50.268Z,5.00
2023-03-15T16:38:52.076Z,4.98
2023-03-15T16:41:53.748Z,4.95
2023-03-15T16:44:55.345Z,4.93
2023-03-15T16:47:56.926Z,4.91
2023-03-15T16:50:58.518Z,4.88
2023-03-15T16:54:12.806Z,4.88
2023-03-15T16:57:22.689Z,4.89
2023-03-15T17:00:25.626Z,4.85
2023-03-15T17:03:29.195Z,4.77
2023-03-15T17:06:32.242Z,4.68
2023-03-15T17:09:33.778Z,4.62
2023-03-15T17:12:36.918Z,4.53
2023-03-15T17:15:38.508Z,4.44
2023-03-15T17:18:43.771Z,4.35
2023-03-15T17:21:45.726Z,4.26
2023-03-15T17:24:48.743Z,4.16
2023-03-15T17:27:51.010Z,4.05
2023-03-15T17:30:59.765Z,4.04
2023-03-15T17:34:10.944Z,3.93
2023-03-15T17:37:14.624Z,3.84
2023-03-15T17:40:23.769Z,3.74
2023-03-15T17:43:26.765Z,3.64
2023-03-15T17:46:30.178Z,3.55
2023-03-15T17:49:31.897Z,3.46
2023-03-15T17:52:33.469Z,3.37
2023-03-15T17:55:35.187Z,3.28
2023-03-15T17:58:36.857Z,3.18
2023-03-15T18:01:42.733Z,3.10
2023-03-15T18:04:44.465Z,3.03
2023-03-15T18:07:58.278Z,2.96
2023-03-15T18:11:00.822Z,2.88
2023-03-15T18:14:05.246Z,2.81
2023-03-15T18:17:06.792Z,2.74
2023-03-15T18:20:10.545Z,2.67
2023-03-15T18:23:18.285Z,2.63
2023-03-15T18:26:20.892Z,2.58
2023-03-15T18:29:22.447Z,2.52
2023-03-15T18:32:24.022Z,2.47
2023-03-15T18:35:29.619Z,2.42
2023-03-15T18:38:31.261Z,2.36
2023-03-15T18:41:32.845Z,2.32
2023-03-15T18:44:34.381Z,2.25
2023-03-15T18:47:35.940Z,2.19
2023-03-15T18:50:37.642Z,2.11
2023-03-15T18:53:40.114Z,2.04
2023-03-15T18:56:43.360Z,1.97
2023-03-15T18:59:44.927Z,1.89
2023-03-15T19:02:46.819Z,1.81
2023-03-15T19:05:48.398Z,1.72
2023-03-15T19:08:54.323Z,1.65
2023-03-15T19:11:55.951Z,1.57
2023-03-15T19:14:57.525Z,1.46
2023-03-15T19:17:59.183Z,1.36
2023-03-15T19:21:01.643Z,1.29
2023-03-15T19:24:03.207Z,1.21
2023-03-15T19:27:04.859Z,1.15
2023-03-15T19:30:09.129Z,1.07
2023-03-15T19:33:10.874Z,1.00
2023-03-15T19:36:12.917Z,0.93
2023-03-15T19:39:14.526Z,0.88
2023-03-15T19:42:16.088Z,0.82
2023-03-15T19:45:18.524Z,0.77
2023-03-15T19:48:20.090Z,0.72
2023-03-15T19:51:21.665Z,0.67
2023-03-15T19:54:23.402Z,0.63
2023-03-15T19:57:24.939Z,0.61
2023-03-15T20:00:26.951Z,0.56
2023-03-15T20:03:28.610Z,0.54
2023-03-15T20:06:30.171Z,0.49
2023-03-15T20:09:38.003Z,0.44
2023-03-15T20:12:42.473Z,0.39
2023-03-15T20:15:44.420Z,0.35
2023-03-15T20:18:47.032Z,0.31
2023-03-15T20:21:48.609Z,0.28
2023-03-15T20:24:50.628Z,0.24
2023-03-15T20:27:52.258Z,0.20
2023-03-15T20:30:53.906Z,0.18
2023-03-15T20:33:55.522Z,0.14
2023-03-15T20:36:57.036Z,0.10
2023-03-15T20:39:58.584Z,0.06
2023-03-15T20:43:00.694Z,0.02
2023-03-15T20:46:04.349Z,-0.01
2023-03-15T20:49:05.962Z,-0.05
2023-03-15T20:52:07.507Z,0.01
2023-03-15T20:55:10.606Z,0.98
2023-03-15T20:58:12.275Z,1.41
2023-03-15T21:01:16.534Z,1.37
2023-03-15T21:04:18.348Z,1.22
2023-03-15T21:07:20.032Z,1.05
2023-03-15T21:10:22.073Z,0.84
2023-03-15T21:13:23.889Z,0.66
2023-03-15T21:16:26.340Z,0.50
2023-03-15T21:19:29.077Z,0.35
2023-03-15T21:22:30.647Z,0.21
2023-03-15T21:25:32.677Z,0.09
2023-03-15T21:28:34.512Z,-0.02
2023-03-15T21:31:37.040Z,-0.12
2023-03-15T21:34:38.597Z,-0.21
2023-03-15T21:37:40.479Z,-0.30
2023-03-15T21:40:46.674Z,-0.39
2023-03-15T21:43:48.235Z,-0.49
2023-03-15T21:46:49.832Z,-0.56
2023-03-15T21:49:54.054Z,-0.62
2023-03-15T21:52:55.872Z,-0.70
2023-03-15T21:55:58.558Z,-0.76
2023-03-15T21:59:00.270Z,-0.83
2023-03-15T22:02:01.851Z,-0.89
2023-03-15T22:05:04.307Z,-0.93
2023-03-15T22:08:06.191Z,-0.98
2023-03-15T22:11:08.056Z,-1.01
2023-03-15T22:14:09.742Z,-1.07
2023-03-15T22:17:11.339Z,-1.12
2023-03-15T22:20:16.938Z,-1.18
2023-03-15T22:23:18.744Z,-1.23
2023-03-15T22:26:20.318Z,-1.28
2023-03-15T22:29:21.940Z,-1.37
2023-03-15T22:32:23.549Z,-1.43
2023-03-15T22:35:25.865Z,-1.46
2023-03-15T22:38:27.469Z,-1.52
2023-03-15T22:41:29.157Z,-1.56
2023-03-15T22:44:30.753Z,-1.58
2023-03-15T22:47:32.339Z,-1.62
2023-03-15T22:50:33.866Z,-1.63
2023-03-15T22:53:35.661Z,-1.68
2023-03-15T22:56:39.928Z,-1.70
2023-03-15T22:59:42.438Z,-1.71
2023-03-15T23:02:45.010Z,-1.70
2023-03-15T23:05:46.792Z,-1.68
2023-03-15T23:08:48.391Z,-1.70
2023-03-15T23:11:50.010Z,-1.70
2023-03-15T23:14:52.038Z,-1.70
2023-03-15T23:17:54.611Z,-1.47
2023-03-15T23:21:11.636Z,-1.46
2023-03-15T23:24:15.887Z,-1.50
2023-03-15T23:27:17.440Z,-1.58
2023-03-15T23:30:19.092Z,-1.66
2023-03-15T23:33:21.169Z,-1.71
2023-03-15T23:36:22.725Z,-1.78
2023-03-15T23:39:24.621Z,-1.83
2023-03-15T23:42:27.510Z,-1.87
2023-03-15T23:45:29.945Z,-1.91
2023-03-15T23:48:35.237Z,-1.97
2023-03-15T23:51:36.769Z,-2.04
2023-03-15T23:54:42.291Z,-2.08
2023-03-15T23:57:43.869Z,-2.13
